sensor_id;sensor_type;location;lat;lon;timestamp;P1;durP1;ratioP1;P2;durP2;ratioP2
68140;SDS011;54941;52.220;104.306;2023-01-28T00:01:21;5.72;;;2.10;;
68140;SDS011;54941;52.220;104.306;2023-01-28T00:03:48;5.00;;;1.85;;
68140;SDS011;54941;52.220;104.306;2023-01-28T00:06:15;4.28;;;2.10;;
68140;SDS011;54941;52.220;104.306;2023-01-28T00:08:41;5.13;;;2.00;;
68140;SDS011;54941;52.220;104.306;2023-01-28T00:11:10;5.57;;;2.95;;
68140;SDS011;54941;52.220;104.306;2023-01-28T00:13:38;9.20;;;3.03;;
68140;SDS011;54941;52.220;104.306;2023-01-28T00:16:05;6.35;;;2.70;;
68140;SDS011;54941;52.220;104.306;2023-01-28T00:18:33;6.03;;;2.72;;
68140;SDS011;54941;52.220;104.306;2023-01-28T00:21:01;4.97;;;1.90;;
68140;SDS011;54941;52.220;104.306;2023-01-28T00:23:30;8.73;;;3.08;;
68140;SDS011;54941;52.220;104.306;2023-01-28T00:25:57;6.50;;;2.58;;
68140;SDS011;54941;52.220;104.306;2023-01-28T00:28:26;6.40;;;2.42;;
68140;SDS011;54941;52.220;104.306;2023-01-28T00:30:52;8.90;;;2.58;;
68140;SDS011;54941;52.220;104.306;2023-01-28T00:33:19;7.90;;;3.33;;
68140;SDS011;54941;52.220;104.306;2023-01-28T00:35:45;6.32;;;2.45;;
68140;SDS011;54941;52.220;104.306;2023-01-28T00:38:12;6.35;;;2.65;;
68140;SDS011;54941;52.220;104.306;2023-01-28T00:40:38;8.50;;;4.07;;
68140;SDS011;54941;52.220;104.306;2023-01-28T00:43:04;15.02;;;4.85;;
68140;SDS011;54941;52.220;104.306;2023-01-28T00:45:32;8.35;;;3.25;;
68140;SDS011;54941;52.220;104.306;2023-01-28T00:47:59;9.88;;;3.25;;
68140;SDS011;54941;52.220;104.306;2023-01-28T00:50:25;7.95;;;4.32;;
68140;SDS011;54941;52.220;104.306;2023-01-28T00:52:51;10.25;;;3.83;;
68140;SDS011;54941;52.220;104.306;2023-01-28T00:55:18;13.60;;;5.32;;
68140;SDS011;54941;52.220;104.306;2023-01-28T00:57:44;12.20;;;4.53;;
68140;SDS011;54941;52.220;104.306;2023-01-28T01:00:11;13.23;;;5.40;;
68140;SDS011;54941;52.220;104.306;2023-01-28T01:02:39;11.02;;;5.63;;
68140;SDS011;54941;52.220;104.306;2023-01-28T01:05:06;15.82;;;6.82;;
68140;SDS011;54941;52.220;104.306;2023-01-28T01:07:33;14.02;;;6.03;;
68140;SDS011;54941;52.220;104.306;2023-01-28T01:09:59;15.90;;;7.50;;
68140;SDS011;54941;52.220;104.306;2023-01-28T01:12:30;19.52;;;7.53;;
68140;SDS011;54941;52.220;104.306;2023-01-28T01:14:57;20.40;;;8.55;;
68140;SDS011;54941;52.220;104.306;2023-01-28T01:17:23;21.75;;;9.38;;
68140;SDS011;54941;52.220;104.306;2023-01-28T01:19:51;19.52;;;7.00;;
68140;SDS011;54941;52.220;104.306;2023-01-28T01:22:17;15.55;;;7.95;;
68140;SDS011;54941;52.220;104.306;2023-01-28T01:24:44;43.15;;;17.75;;
68140;SDS011;54941;52.220;104.306;2023-01-28T01:27:12;24.90;;;10.38;;
68140;SDS011;54941;52.220;104.306;2023-01-28T01:29:38;18.48;;;9.60;;
68140;SDS011;54941;52.220;104.306;2023-01-28T01:32:04;17.85;;;7.82;;
68140;SDS011;54941;52.220;104.306;2023-01-28T01:34:31;40.50;;;17.63;;
68140;SDS011;54941;52.220;104.306;2023-01-28T01:36:59;23.38;;;8.68;;
68140;SDS011;54941;52.220;104.306;2023-01-28T01:39:25;20.25;;;8.57;;
68140;SDS011;54941;52.220;104.306;2023-01-28T01:41:51;20.25;;;7.90;;
68140;SDS011;54941;52.220;104.306;2023-01-28T01:47:20;18.40;;;7.75;;
68140;SDS011;54941;52.220;104.306;2023-01-28T01:49:49;18.75;;;8.05;;
68140;SDS011;54941;52.220;104.306;2023-01-28T01:52:18;22.20;;;8.68;;
68140;SDS011;54941;52.220;104.306;2023-01-28T01:54:51;21.02;;;8.55;;
68140;SDS011;54941;52.220;104.306;2023-01-28T01:57:23;23.25;;;9.43;;
68140;SDS011;54941;52.220;104.306;2023-01-28T01:59:53;19.02;;;8.80;;
68140;SDS011;54941;52.220;104.306;2023-01-28T02:02:21;22.77;;;10.23;;
68140;SDS011;54941;52.220;104.306;2023-01-28T02:04:48;18.95;;;7.88;;
68140;SDS011;54941;52.220;104.306;2023-01-28T02:07:15;15.23;;;7.90;;
68140;SDS011;54941;52.220;104.306;2023-01-28T02:09:44;19.05;;;8.52;;
68140;SDS011;54941;52.220;104.306;2023-01-28T02:12:11;17.75;;;7.82;;
68140;SDS011;54941;52.220;104.306;2023-01-28T02:14:40;18.42;;;9.68;;
68140;SDS011;54941;52.220;104.306;2023-01-28T02:17:09;19.65;;;10.02;;
68140;SDS011;54941;52.220;104.306;2023-01-28T02:19:36;22.45;;;9.00;;
68140;SDS011;54941;52.220;104.306;2023-01-28T02:22:05;21.92;;;9.80;;
68140;SDS011;54941;52.220;104.306;2023-01-28T02:24:49;21.17;;;11.63;;
68140;SDS011;54941;52.220;104.306;2023-01-28T02:27:30;20.08;;;10.98;;
68140;SDS011;54941;52.220;104.306;2023-01-28T02:30:06;24.48;;;10.85;;
68140;SDS011;54941;52.220;104.306;2023-01-28T02:32:39;20.88;;;11.27;;
68140;SDS011;54941;52.220;104.306;2023-01-28T02:35:11;20.10;;;11.30;;
68140;SDS011;54941;52.220;104.306;2023-01-28T02:37:44;22.02;;;11.63;;
68140;SDS011;54941;52.220;104.306;2023-01-28T02:40:19;22.75;;;11.45;;
68140;SDS011;54941;52.220;104.306;2023-01-28T02:42:49;16.23;;;8.65;;
68140;SDS011;54941;52.220;104.306;2023-01-28T02:45:21;16.52;;;8.77;;
68140;SDS011;54941;52.220;104.306;2023-01-28T02:47:50;19.33;;;8.52;;
68140;SDS011;54941;52.220;104.306;2023-01-28T02:50:17;24.20;;;7.45;;
68140;SDS011;54941;52.220;104.306;2023-01-28T02:52:48;16.85;;;7.90;;
68140;SDS011;54941;52.220;104.306;2023-01-28T02:55:28;23.25;;;8.95;;
68140;SDS011;54941;52.220;104.306;2023-01-28T02:58:01;18.73;;;7.55;;
68140;SDS011;54941;52.220;104.306;2023-01-28T03:00:36;18.50;;;7.95;;
68140;SDS011;54941;52.220;104.306;2023-01-28T03:03:12;16.13;;;8.90;;
68140;SDS011;54941;52.220;104.306;2023-01-28T03:05:42;19.17;;;8.20;;
68140;SDS011;54941;52.220;104.306;2023-01-28T03:08:13;13.98;;;7.30;;
68140;SDS011;54941;52.220;104.306;2023-01-28T03:10:40;16.38;;;8.00;;
68140;SDS011;54941;52.220;104.306;2023-01-28T03:13:06;18.08;;;7.72;;
68140;SDS011;54941;52.220;104.306;2023-01-28T03:15:36;14.57;;;6.70;;
68140;SDS011;54941;52.220;104.306;2023-01-28T03:18:06;13.52;;;6.82;;
68140;SDS011;54941;52.220;104.306;2023-01-28T03:20:37;14.82;;;7.13;;
68140;SDS011;54941;52.220;104.306;2023-01-28T03:23:07;16.23;;;7.25;;
68140;SDS011;54941;52.220;104.306;2023-01-28T03:25:39;12.20;;;5.03;;
68140;SDS011;54941;52.220;104.306;2023-01-28T03:28:08;13.43;;;5.80;;
68140;SDS011;54941;52.220;104.306;2023-01-28T03:30:39;16.08;;;7.50;;
68140;SDS011;54941;52.220;104.306;2023-01-28T03:33:10;24.35;;;10.15;;
68140;SDS011;54941;52.220;104.306;2023-01-28T03:35:37;17.67;;;8.23;;
68140;SDS011;54941;52.220;104.306;2023-01-28T03:38:04;18.52;;;7.60;;
68140;SDS011;54941;52.220;104.306;2023-01-28T03:40:32;14.13;;;6.45;;
68140;SDS011;54941;52.220;104.306;2023-01-28T03:42:59;11.15;;;5.30;;
68140;SDS011;54941;52.220;104.306;2023-01-28T03:45:25;11.88;;;5.65;;
68140;SDS011;54941;52.220;104.306;2023-01-28T03:47:53;13.27;;;4.95;;
68140;SDS011;54941;52.220;104.306;2023-01-28T03:50:20;13.73;;;5.70;;
68140;SDS011;54941;52.220;104.306;2023-01-28T03:52:46;10.38;;;5.82;;
68140;SDS011;54941;52.220;104.306;2023-01-28T03:55:12;10.82;;;4.93;;
68140;SDS011;54941;52.220;104.306;2023-01-28T03:57:39;12.07;;;4.80;;
68140;SDS011;54941;52.220;104.306;2023-01-28T04:00:06;14.68;;;4.68;;
68140;SDS011;54941;52.220;104.306;2023-01-28T04:02:33;12.68;;;4.53;;
68140;SDS011;54941;52.220;104.306;2023-01-28T04:05:01;12.45;;;5.03;;
68140;SDS011;54941;52.220;104.306;2023-01-28T04:07:29;12.18;;;5.68;;
68140;SDS011;54941;52.220;104.306;2023-01-28T04:09:55;12.27;;;5.97;;
68140;SDS011;54941;52.220;104.306;2023-01-28T04:12:23;12.50;;;5.63;;
68140;SDS011;54941;52.220;104.306;2023-01-28T04:14:50;10.13;;;4.90;;
68140;SDS011;54941;52.220;104.306;2023-01-28T04:17:16;11.75;;;4.82;;
68140;SDS011;54941;52.220;104.306;2023-01-28T04:19:43;9.15;;;3.78;;
68140;SDS011;54941;52.220;104.306;2023-01-28T04:22:10;14.88;;;6.05;;
68140;SDS011;54941;52.220;104.306;2023-01-28T04:24:37;12.27;;;4.25;;
68140;SDS011;54941;52.220;104.306;2023-01-28T04:27:03;14.48;;;5.32;;
68140;SDS011;54941;52.220;104.306;2023-01-28T04:29:30;11.15;;;5.68;;
68140;SDS011;54941;52.220;104.306;2023-01-28T04:31:58;10.05;;;5.32;;
68140;SDS011;54941;52.220;104.306;2023-01-28T04:34:27;8.57;;;4.65;;
68140;SDS011;54941;52.220;104.306;2023-01-28T04:36:53;13.07;;;6.72;;
68140;SDS011;54941;52.220;104.306;2023-01-28T04:39:21;10.88;;;5.07;;
68140;SDS011;54941;52.220;104.306;2023-01-28T04:41:50;11.82;;;5.97;;
68140;SDS011;54941;52.220;104.306;2023-01-28T04:44:19;14.70;;;5.40;;
68140;SDS011;54941;52.220;104.306;2023-01-28T04:46:46;7.65;;;4.35;;
68140;SDS011;54941;52.220;104.306;2023-01-28T04:49:12;9.05;;;4.38;;
68140;SDS011;54941;52.220;104.306;2023-01-28T04:51:38;10.15;;;4.28;;
68140;SDS011;54941;52.220;104.306;2023-01-28T04:54:05;12.52;;;4.35;;
68140;SDS011;54941;52.220;104.306;2023-01-28T04:56:33;8.80;;;4.28;;
68140;SDS011;54941;52.220;104.306;2023-01-28T04:59:07;9.80;;;3.55;;
68140;SDS011;54941;52.220;104.306;2023-01-28T05:01:33;7.70;;;4.25;;
68140;SDS011;54941;52.220;104.306;2023-01-28T05:04:00;8.52;;;4.03;;
68140;SDS011;54941;52.220;104.306;2023-01-28T05:06:26;10.45;;;5.40;;
68140;SDS011;54941;52.220;104.306;2023-01-28T05:08:52;9.73;;;4.75;;
68140;SDS011;54941;52.220;104.306;2023-01-28T05:11:19;9.75;;;3.95;;
68140;SDS011;54941;52.220;104.306;2023-01-28T05:13:46;10.10;;;4.38;;
68140;SDS011;54941;52.220;104.306;2023-01-28T05:16:13;11.77;;;4.60;;
68140;SDS011;54941;52.220;104.306;2023-01-28T05:18:39;10.68;;;4.65;;
68140;SDS011;54941;52.220;104.306;2023-01-28T05:21:06;10.73;;;4.78;;
68140;SDS011;54941;52.220;104.306;2023-01-28T05:23:32;8.63;;;3.83;;
68140;SDS011;54941;52.220;104.306;2023-01-28T05:25:59;12.45;;;4.70;;
68140;SDS011;54941;52.220;104.306;2023-01-28T05:28:25;10.40;;;5.55;;
68140;SDS011;54941;52.220;104.306;2023-01-28T05:30:53;11.85;;;4.93;;
68140;SDS011;54941;52.220;104.306;2023-01-28T05:33:19;11.48;;;5.03;;
68140;SDS011;54941;52.220;104.306;2023-01-28T05:35:46;13.45;;;5.20;;
68140;SDS011;54941;52.220;104.306;2023-01-28T05:38:12;13.75;;;5.03;;
68140;SDS011;54941;52.220;104.306;2023-01-28T05:40:38;13.25;;;4.53;;
68140;SDS011;54941;52.220;104.306;2023-01-28T05:43:05;11.10;;;4.25;;
68140;SDS011;54941;52.220;104.306;2023-01-28T05:45:31;10.25;;;4.30;;
68140;SDS011;54941;52.220;104.306;2023-01-28T05:47:59;12.20;;;5.57;;
68140;SDS011;54941;52.220;104.306;2023-01-28T05:50:26;11.35;;;5.38;;
68140;SDS011;54941;52.220;104.306;2023-01-28T05:52:52;13.10;;;4.88;;
68140;SDS011;54941;52.220;104.306;2023-01-28T05:55:18;8.65;;;4.38;;
68140;SDS011;54941;52.220;104.306;2023-01-28T05:57:45;9.02;;;4.57;;
68140;SDS011;54941;52.220;104.306;2023-01-28T06:00:13;8.95;;;4.18;;
68140;SDS011;54941;52.220;104.306;2023-01-28T06:02:39;11.82;;;3.90;;
68140;SDS011;54941;52.220;104.306;2023-01-28T06:05:08;9.52;;;3.75;;
68140;SDS011;54941;52.220;104.306;2023-01-28T06:07:38;11.35;;;4.35;;
68140;SDS011;54941;52.220;104.306;2023-01-28T06:10:04;10.80;;;5.03;;
68140;SDS011;54941;52.220;104.306;2023-01-28T06:12:32;11.73;;;4.50;;
68140;SDS011;54941;52.220;104.306;2023-01-28T06:14:59;11.98;;;4.55;;
68140;SDS011;54941;52.220;104.306;2023-01-28T06:17:25;10.02;;;4.15;;
68140;SDS011;54941;52.220;104.306;2023-01-28T06:19:52;9.95;;;4.88;;
68140;SDS011;54941;52.220;104.306;2023-01-28T06:22:19;14.75;;;5.55;;
68140;SDS011;54941;52.220;104.306;2023-01-28T06:24:46;12.60;;;4.30;;
68140;SDS011;54941;52.220;104.306;2023-01-28T06:27:12;9.15;;;4.65;;
68140;SDS011;54941;52.220;104.306;2023-01-28T06:29:39;11.70;;;4.65;;
68140;SDS011;54941;52.220;104.306;2023-01-28T06:32:05;11.65;;;4.65;;
68140;SDS011;54941;52.220;104.306;2023-01-28T06:34:31;11.50;;;5.15;;
68140;SDS011;54941;52.220;104.306;2023-01-28T06:36:58;8.75;;;4.00;;
68140;SDS011;54941;52.220;104.306;2023-01-28T06:39:26;9.05;;;4.78;;
68140;SDS011;54941;52.220;104.306;2023-01-28T06:41:52;8.02;;;3.80;;
68140;SDS011;54941;52.220;104.306;2023-01-28T06:44:18;13.27;;;4.80;;
68140;SDS011;54941;52.220;104.306;2023-01-28T06:46:45;13.57;;;5.05;;
68140;SDS011;54941;52.220;104.306;2023-01-28T06:49:11;11.15;;;4.80;;
68140;SDS011;54941;52.220;104.306;2023-01-28T06:51:37;10.65;;;5.32;;
68140;SDS011;54941;52.220;104.306;2023-01-28T06:54:04;10.73;;;4.70;;
68140;SDS011;54941;52.220;104.306;2023-01-28T06:56:32;13.05;;;5.15;;
68140;SDS011;54941;52.220;104.306;2023-01-28T06:58:59;9.77;;;4.47;;
68140;SDS011;54941;52.220;104.306;2023-01-28T07:01:25;10.70;;;4.45;;
68140;SDS011;54941;52.220;104.306;2023-01-28T07:03:52;10.57;;;4.18;;
68140;SDS011;54941;52.220;104.306;2023-01-28T07:06:18;12.43;;;5.75;;
68140;SDS011;54941;52.220;104.306;2023-01-28T07:08:44;12.90;;;5.32;;
68140;SDS011;54941;52.220;104.306;2023-01-28T07:11:11;10.93;;;4.63;;
68140;SDS011;54941;52.220;104.306;2023-01-28T07:13:39;9.95;;;4.72;;
68140;SDS011;54941;52.220;104.306;2023-01-28T07:16:06;25.75;;;9.85;;
68140;SDS011;54941;52.220;104.306;2023-01-28T07:18:33;23.40;;;9.15;;
68140;SDS011;54941;52.220;104.306;2023-01-28T07:20:59;34.47;;;13.65;;
68140;SDS011;54941;52.220;104.306;2023-01-28T07:23:25;28.52;;;11.60;;
68140;SDS011;54941;52.220;104.306;2023-01-28T07:25:52;20.83;;;10.13;;
68140;SDS011;54941;52.220;104.306;2023-01-28T07:28:18;21.55;;;7.47;;
68140;SDS011;54941;52.220;104.306;2023-01-28T07:30:46;15.65;;;6.78;;
68140;SDS011;54941;52.220;104.306;2023-01-28T07:33:13;13.43;;;5.43;;
68140;SDS011;54941;52.220;104.306;2023-01-28T07:35:42;11.10;;;4.53;;
68140;SDS011;54941;52.220;104.306;2023-01-28T07:38:10;13.85;;;4.32;;
68140;SDS011;54941;52.220;104.306;2023-01-28T07:40:36;12.73;;;4.47;;
68140;SDS011;54941;52.220;104.306;2023-01-28T07:43:03;11.27;;;4.43;;
68140;SDS011;54941;52.220;104.306;2023-01-28T07:45:30;16.05;;;5.18;;
68140;SDS011;54941;52.220;104.306;2023-01-28T07:47:58;14.20;;;6.10;;
68140;SDS011;54941;52.220;104.306;2023-01-28T07:50:26;10.82;;;5.25;;
68140;SDS011;54941;52.220;104.306;2023-01-28T07:52:54;15.07;;;5.53;;
68140;SDS011;54941;52.220;104.306;2023-01-28T07:55:20;10.15;;;3.95;;
68140;SDS011;54941;52.220;104.306;2023-01-28T07:57:47;9.45;;;4.07;;
68140;SDS011;54941;52.220;104.306;2023-01-28T08:00:15;14.88;;;3.75;;
68140;SDS011;54941;52.220;104.306;2023-01-28T08:02:42;11.95;;;3.83;;
68140;SDS011;54941;52.220;104.306;2023-01-28T08:05:10;17.90;;;4.15;;
68140;SDS011;54941;52.220;104.306;2023-01-28T08:07:36;12.30;;;4.65;;
68140;SDS011;54941;52.220;104.306;2023-01-28T08:10:03;11.75;;;4.72;;
68140;SDS011;54941;52.220;104.306;2023-01-28T08:12:29;12.55;;;4.53;;
68140;SDS011;54941;52.220;104.306;2023-01-28T08:14:56;8.45;;;4.28;;
68140;SDS011;54941;52.220;104.306;2023-01-28T08:17:22;15.70;;;4.85;;
68140;SDS011;54941;52.220;104.306;2023-01-28T08:19:49;10.18;;;4.88;;
68140;SDS011;54941;52.220;104.306;2023-01-28T08:22:16;11.23;;;4.95;;
68140;SDS011;54941;52.220;104.306;2023-01-28T08:24:43;11.13;;;4.80;;
68140;SDS011;54941;52.220;104.306;2023-01-28T08:27:09;10.48;;;4.80;;
68140;SDS011;54941;52.220;104.306;2023-01-28T08:29:35;12.40;;;5.55;;
68140;SDS011;54941;52.220;104.306;2023-01-28T08:32:02;11.05;;;4.50;;
68140;SDS011;54941;52.220;104.306;2023-01-28T08:34:28;9.75;;;4.35;;
68140;SDS011;54941;52.220;104.306;2023-01-28T08:36:54;7.43;;;4.40;;
68140;SDS011;54941;52.220;104.306;2023-01-28T08:39:22;10.27;;;5.35;;
68140;SDS011;54941;52.220;104.306;2023-01-28T08:41:49;13.10;;;6.40;;
68140;SDS011;54941;52.220;104.306;2023-01-28T08:44:15;14.25;;;7.85;;
68140;SDS011;54941;52.220;104.306;2023-01-28T08:46:42;11.48;;;6.05;;
68140;SDS011;54941;52.220;104.306;2023-01-28T08:49:08;13.63;;;5.43;;
68140;SDS011;54941;52.220;104.306;2023-01-28T08:51:35;9.82;;;5.43;;
68140;SDS011;54941;52.220;104.306;2023-01-28T08:54:01;10.82;;;5.68;;
68140;SDS011;54941;52.220;104.306;2023-01-28T08:56:29;14.23;;;6.60;;
68140;SDS011;54941;52.220;104.306;2023-01-28T08:58:55;12.90;;;5.90;;
68140;SDS011;54941;52.220;104.306;2023-01-28T09:01:22;12.25;;;6.57;;
68140;SDS011;54941;52.220;104.306;2023-01-28T09:03:48;10.88;;;4.88;;
68140;SDS011;54941;52.220;104.306;2023-01-28T09:06:15;17.88;;;7.53;;
68140;SDS011;54941;52.220;104.306;2023-01-28T09:08:41;13.25;;;5.78;;
68140;SDS011;54941;52.220;104.306;2023-01-28T09:11:07;13.60;;;5.43;;
68140;SDS011;54941;52.220;104.306;2023-01-28T09:13:35;19.25;;;7.18;;
68140;SDS011;54941;52.220;104.306;2023-01-28T09:16:03;14.85;;;5.68;;
68140;SDS011;54941;52.220;104.306;2023-01-28T09:18:30;13.70;;;7.00;;
68140;SDS011;54941;52.220;104.306;2023-01-28T09:20:56;13.90;;;6.72;;
68140;SDS011;54941;52.220;104.306;2023-01-28T09:23:22;18.70;;;8.18;;
68140;SDS011;54941;52.220;104.306;2023-01-28T09:25:49;12.23;;;5.65;;
68140;SDS011;54941;52.220;104.306;2023-01-28T09:28:15;14.70;;;6.60;;
68140;SDS011;54941;52.220;104.306;2023-01-28T09:30:43;15.68;;;6.60;;
68140;SDS011;54941;52.220;104.306;2023-01-28T09:33:09;15.65;;;6.00;;
68140;SDS011;54941;52.220;104.306;2023-01-28T09:35:36;16.65;;;6.80;;
68140;SDS011;54941;52.220;104.306;2023-01-28T09:38:02;11.52;;;5.13;;
68140;SDS011;54941;52.220;104.306;2023-01-28T09:40:33;8.80;;;5.22;;
68140;SDS011;54941;52.220;104.306;2023-01-28T09:43:06;16.90;;;7.80;;
68140;SDS011;54941;52.220;104.306;2023-01-28T09:45:51;13.45;;;7.18;;
68140;SDS011;54941;52.220;104.306;2023-01-28T09:48:21;20.67;;;9.38;;
68140;SDS011;54941;52.220;104.306;2023-01-28T09:50:54;23.63;;;10.57;;
68140;SDS011;54941;52.220;104.306;2023-01-28T09:53:22;24.13;;;10.98;;
68140;SDS011;54941;52.220;104.306;2023-01-28T09:55:52;20.00;;;10.23;;
68140;SDS011;54941;52.220;104.306;2023-01-28T09:58:21;21.65;;;11.18;;
68140;SDS011;54941;52.220;104.306;2023-01-28T10:00:51;21.83;;;9.52;;
68140;SDS011;54941;52.220;104.306;2023-01-28T10:06:21;21.95;;;12.73;;
68140;SDS011;54941;52.220;104.306;2023-01-28T10:08:59;23.85;;;10.75;;
68140;SDS011;54941;52.220;104.306;2023-01-28T10:11:40;26.83;;;11.30;;
68140;SDS011;54941;52.220;104.306;2023-01-28T10:14:17;24.92;;;11.70;;
68140;SDS011;54941;52.220;104.306;2023-01-28T10:16:55;29.40;;;12.85;;
68140;SDS011;54941;52.220;104.306;2023-01-28T10:19:30;27.15;;;13.30;;
68140;SDS011;54941;52.220;104.306;2023-01-28T10:22:04;26.67;;;12.23;;
68140;SDS011;54941;52.220;104.306;2023-01-28T10:24:38;29.98;;;12.73;;
68140;SDS011;54941;52.220;104.306;2023-01-28T10:27:09;38.55;;;14.18;;
68140;SDS011;54941;52.220;104.306;2023-01-28T10:29:40;41.50;;;19.10;;
68140;SDS011;54941;52.220;104.306;2023-01-28T10:32:12;30.00;;;13.65;;
68140;SDS011;54941;52.220;104.306;2023-01-28T10:34:46;27.65;;;13.40;;
68140;SDS011;54941;52.220;104.306;2023-01-28T10:37:13;31.63;;;14.02;;
68140;SDS011;54941;52.220;104.306;2023-01-28T10:39:40;31.92;;;14.48;;
68140;SDS011;54941;52.220;104.306;2023-01-28T10:42:19;32.97;;;15.10;;
68140;SDS011;54941;52.220;104.306;2023-01-28T10:44:53;24.70;;;12.00;;
68140;SDS011;54941;52.220;104.306;2023-01-28T10:47:26;31.60;;;14.18;;
68140;SDS011;54941;52.220;104.306;2023-01-28T10:49:56;29.63;;;13.35;;
68140;SDS011;54941;52.220;104.306;2023-01-28T10:52:24;27.38;;;13.88;;
68140;SDS011;54941;52.220;104.306;2023-01-28T10:54:57;32.50;;;15.77;;
68140;SDS011;54941;52.220;104.306;2023-01-28T10:57:24;30.15;;;13.80;;
68140;SDS011;54941;52.220;104.306;2023-01-28T10:59:51;32.00;;;16.00;;
68140;SDS011;54941;52.220;104.306;2023-01-28T11:02:30;27.30;;;13.57;;
68140;SDS011;54941;52.220;104.306;2023-01-28T11:05:06;29.05;;;12.95;;
68140;SDS011;54941;52.220;104.306;2023-01-28T11:07:40;28.08;;;13.45;;
68140;SDS011;54941;52.220;104.306;2023-01-28T11:10:21;32.70;;;14.77;;
68140;SDS011;54941;52.220;104.306;2023-01-28T11:12:53;32.00;;;16.00;;
68140;SDS011;54941;52.220;104.306;2023-01-28T11:15:20;33.47;;;15.98;;
68140;SDS011;54941;52.220;104.306;2023-01-28T11:17:49;29.92;;;14.77;;
68140;SDS011;54941;52.220;104.306;2023-01-28T11:20:21;31.00;;;13.32;;
68140;SDS011;54941;52.220;104.306;2023-01-28T11:22:50;28.58;;;13.45;;
68140;SDS011;54941;52.220;104.306;2023-01-28T11:25:23;33.40;;;14.25;;
68140;SDS011;54941;52.220;104.306;2023-01-28T11:27:54;33.35;;;15.13;;
68140;SDS011;54941;52.220;104.306;2023-01-28T11:30:22;36.05;;;16.95;;
68140;SDS011;54941;52.220;104.306;2023-01-28T11:32:57;26.00;;;11.65;;
68140;SDS011;54941;52.220;104.306;2023-01-28T11:35:30;23.80;;;10.48;;
68140;SDS011;54941;52.220;104.306;2023-01-28T11:37:56;22.00;;;10.50;;
68140;SDS011;54941;52.220;104.306;2023-01-28T11:40:23;20.33;;;10.02;;
68140;SDS011;54941;52.220;104.306;2023-01-28T11:42:50;18.15;;;8.15;;
68140;SDS011;54941;52.220;104.306;2023-01-28T11:45:19;17.00;;;8.98;;
68140;SDS011;54941;52.220;104.306;2023-01-28T11:48:01;22.65;;;8.80;;
68140;SDS011;54941;52.220;104.306;2023-01-28T11:50:38;24.90;;;11.32;;
68140;SDS011;54941;52.220;104.306;2023-01-28T11:53:24;24.60;;;11.50;;
68140;SDS011;54941;52.220;104.306;2023-01-28T11:56:04;26.55;;;10.25;;
68140;SDS011;54941;52.220;104.306;2023-01-28T11:58:51;18.67;;;7.93;;
68140;SDS011;54941;52.220;104.306;2023-01-28T12:01:30;18.23;;;8.95;;
68140;SDS011;54941;52.220;104.306;2023-01-28T12:04:17;19.95;;;10.25;;
68140;SDS011;54941;52.220;104.306;2023-01-28T12:06:51;22.85;;;11.48;;
68140;SDS011;54941;52.220;104.306;2023-01-28T12:09:41;19.80;;;9.98;;
68140;SDS011;54941;52.220;104.306;2023-01-28T12:12:18;15.65;;;9.63;;
68140;SDS011;54941;52.220;104.306;2023-01-28T12:18:06;17.70;;;8.35;;
68140;SDS011;54941;52.220;104.306;2023-01-28T12:20:44;17.95;;;7.45;;
68140;SDS011;54941;52.220;104.306;2023-01-28T12:23:24;17.25;;;8.07;;
68140;SDS011;54941;52.220;104.306;2023-01-28T12:26:05;16.75;;;8.57;;
68140;SDS011;54941;52.220;104.306;2023-01-28T12:28:52;11.07;;;6.63;;
68140;SDS011;54941;52.220;104.306;2023-01-28T12:31:33;12.05;;;6.13;;
68140;SDS011;54941;52.220;104.306;2023-01-28T12:34:21;13.60;;;6.10;;
68140;SDS011;54941;52.220;104.306;2023-01-28T12:37:08;15.32;;;8.30;;
68140;SDS011;54941;52.220;104.306;2023-01-28T12:39:45;16.88;;;6.63;;
68140;SDS011;54941;52.220;104.306;2023-01-28T12:42:24;15.45;;;7.50;;
68140;SDS011;54941;52.220;104.306;2023-01-28T12:44:58;13.60;;;7.25;;
68140;SDS011;54941;52.220;104.306;2023-01-28T12:47:32;17.95;;;8.90;;
68140;SDS011;54941;52.220;104.306;2023-01-28T12:50:03;15.00;;;7.53;;
68140;SDS011;54941;52.220;104.306;2023-01-28T12:52:41;13.27;;;6.05;;
68140;SDS011;54941;52.220;104.306;2023-01-28T12:55:12;13.20;;;6.40;;
68140;SDS011;54941;52.220;104.306;2023-01-28T12:57:42;10.43;;;5.70;;
68140;SDS011;54941;52.220;104.306;2023-01-28T13:00:14;11.73;;;6.05;;
68140;SDS011;54941;52.220;104.306;2023-01-28T13:02:49;13.10;;;7.60;;
68140;SDS011;54941;52.220;104.306;2023-01-28T13:05:23;11.98;;;5.95;;
68140;SDS011;54941;52.220;104.306;2023-01-28T13:07:58;15.57;;;6.53;;
68140;SDS011;54941;52.220;104.306;2023-01-28T13:10:29;11.85;;;5.85;;
68140;SDS011;54941;52.220;104.306;2023-01-28T13:13:01;12.15;;;5.82;;
68140;SDS011;54941;52.220;104.306;2023-01-28T13:15:28;13.90;;;6.45;;
68140;SDS011;54941;52.220;104.306;2023-01-28T13:17:56;16.30;;;7.07;;
68140;SDS011;54941;52.220;104.306;2023-01-28T13:20:34;15.82;;;7.18;;
68140;SDS011;54941;52.220;104.306;2023-01-28T13:23:04;10.60;;;6.55;;
68140;SDS011;54941;52.220;104.306;2023-01-28T13:25:47;11.63;;;6.63;;
68140;SDS011;54941;52.220;104.306;2023-01-28T13:33:30;16.63;;;8.32;;
68140;SDS011;54941;52.220;104.306;2023-01-28T13:36:00;12.40;;;7.18;;
68140;SDS011;54941;52.220;104.306;2023-01-28T13:38:33;19.67;;;6.90;;
68140;SDS011;54941;52.220;104.306;2023-01-28T13:41:01;12.18;;;5.90;;
68140;SDS011;54941;52.220;104.306;2023-01-28T13:43:33;13.07;;;5.57;;
68140;SDS011;54941;52.220;104.306;2023-01-28T13:46:04;14.48;;;6.75;;
68140;SDS011;54941;52.220;104.306;2023-01-28T13:48:34;12.90;;;7.25;;
68140;SDS011;54941;52.220;104.306;2023-01-28T13:51:09;14.13;;;7.40;;
68140;SDS011;54941;52.220;104.306;2023-01-28T13:53:44;15.13;;;7.30;;
68140;SDS011;54941;52.220;104.306;2023-01-28T13:56:17;13.73;;;6.07;;
68140;SDS011;54941;52.220;104.306;2023-01-28T14:07:55;12.90;;;5.70;;
68140;SDS011;54941;52.220;104.306;2023-01-28T14:10:50;12.77;;;6.82;;
68140;SDS011;54941;52.220;104.306;2023-01-28T14:16:37;20.58;;;9.13;;
68140;SDS011;54941;52.220;104.306;2023-01-28T14:19:10;19.13;;;10.32;;
68140;SDS011;54941;52.220;104.306;2023-01-28T14:21:38;15.75;;;9.15;;
68140;SDS011;54941;52.220;104.306;2023-01-28T14:24:05;22.27;;;10.55;;
68140;SDS011;54941;52.220;104.306;2023-01-28T14:26:43;23.60;;;11.18;;
68140;SDS011;54941;52.220;104.306;2023-01-28T14:29:20;20.45;;;9.95;;
68140;SDS011;54941;52.220;104.306;2023-01-28T14:31:56;24.92;;;9.48;;
68140;SDS011;54941;52.220;104.306;2023-01-28T14:34:26;17.55;;;9.52;;
68140;SDS011;54941;52.220;104.306;2023-01-28T14:36:55;18.80;;;8.82;;
68140;SDS011;54941;52.220;104.306;2023-01-28T14:39:26;21.42;;;8.63;;
68140;SDS011;54941;52.220;104.306;2023-01-28T14:41:56;21.73;;;9.18;;
68140;SDS011;54941;52.220;104.306;2023-01-28T14:44:29;18.55;;;9.10;;
68140;SDS011;54941;52.220;104.306;2023-01-28T14:47:01;18.73;;;8.75;;
68140;SDS011;54941;52.220;104.306;2023-01-28T14:49:45;18.00;;;8.80;;